createdAt,value
2018-08-10T00:00:55.758Z,88.87
2018-08-10T00:03:24.917Z,89.29
2018-08-10T00:05:53.920Z,89.98
2018-08-10T00:08:23.107Z,90.27
2018-08-10T00:10:52.794Z,90.29
2018-08-10T00:13:22.174Z,90.56
2018-08-10T00:15:51.178Z,90.87
2018-08-10T00:18:19.938Z,93.13
2018-08-10T00:20:48.730Z,93.90
2018-08-10T00:23:17.780Z,95.02
2018-08-10T00:25:46.550Z,96.13
2018-08-10T00:28:15.495Z,96.54
2018-08-10T00:30:44.282Z,97.12
2018-08-10T00:33:13.363Z,98.04
2018-08-10T00:35:42.086Z,98.16
2018-08-10T00:38:10.923Z,99.73
2018-08-10T00:40:39.703Z,100.00
2018-08-10T00:43:08.702Z,100.00
2018-08-10T00:45:37.764Z,98.85
2018-08-10T00:48:06.497Z,97.73
2018-08-10T00:50:35.220Z,96.25
2018-08-10T00:53:04.287Z,96.93
2018-08-10T00:55:33.418Z,92.88
2018-08-10T00:58:02.148Z,92.67
2018-08-10T01:00:30.912Z,92.07
2018-08-10T01:02:59.663Z,92.33
2018-08-10T01:05:28.770Z,92.19
2018-08-10T01:07:57.827Z,91.15
2018-08-10T01:10:26.809Z,91.67
2018-08-10T01:12:55.607Z,91.88
2018-08-10T01:15:24.568Z,92.46
2018-08-10T01:17:53.447Z,91.51
2018-08-10T01:20:23.387Z,91.76
2018-08-10T01:22:57.413Z,91.10
2018-08-10T01:25:27.639Z,90.60
2018-08-10T01:27:57.941Z,90.68
2018-08-10T01:30:28.875Z,90.61
2018-08-10T01:32:58.017Z,89.98
2018-08-10T01:35:56.028Z,89.97
2018-08-10T01:38:25.107Z,90.54
2018-08-10T01:40:54.637Z,90.47
2018-08-10T01:43:23.632Z,90.91
2018-08-10T01:45:52.451Z,91.61
2018-08-10T01:48:21.221Z,91.76
2018-08-10T01:50:50.577Z,92.31
2018-08-10T01:53:19.588Z,92.82
2018-08-10T01:55:48.413Z,93.07
2018-08-10T01:58:17.216Z,92.93
2018-08-10T02:00:46.008Z,92.89
2018-08-10T02:03:14.799Z,93.84
2018-08-10T02:05:43.772Z,93.79
2018-08-10T02:08:13.457Z,94.28
2018-08-10T02:10:42.457Z,94.97
2018-08-10T02:13:11.242Z,94.70
2018-08-10T02:15:40.515Z,95.27
2018-08-10T02:18:09.335Z,95.99
2018-08-10T02:20:38.769Z,96.35
2018-08-10T02:23:07.519Z,96.70
2018-08-10T02:25:36.884Z,96.28
2018-08-10T02:28:06.003Z,96.90
2018-08-10T02:30:34.762Z,97.92
2018-08-10T02:33:03.678Z,97.87
2018-08-10T02:35:32.791Z,98.67
2018-08-10T02:38:02.655Z,99.10
2018-08-10T02:40:31.454Z,99.16
2018-08-10T02:43:00.399Z,100.00
2018-08-10T02:45:29.190Z,100.00
2018-08-10T02:47:58.973Z,100.00
2018-08-10T02:50:27.747Z,100.00
2018-08-10T02:52:56.875Z,100.00
2018-08-10T02:55:26.294Z,100.00
2018-08-10T02:57:55.777Z,100.00
2018-08-10T03:00:24.937Z,100.00
2018-08-10T03:02:54.993Z,100.00
2018-08-10T03:05:24.115Z,100.00
2018-08-10T03:07:53.763Z,99.61
2018-08-10T03:10:22.875Z,99.52
2018-08-10T03:12:51.885Z,99.64
2018-08-10T03:15:20.954Z,99.53
2018-08-10T03:17:50.048Z,99.57
2018-08-10T03:20:19.023Z,99.21
2018-08-10T03:22:48.443Z,99.39
2018-08-10T03:25:17.207Z,99.12
2018-08-10T03:27:46.189Z,98.42
2018-08-10T03:30:15.339Z,99.28
2018-08-10T03:32:44.699Z,98.69
2018-08-10T03:35:13.824Z,98.39
2018-08-10T03:37:43.093Z,98.95
2018-08-10T03:40:14.228Z,98.56
2018-08-10T03:42:43.184Z,98.49
2018-08-10T03:45:12.558Z,99.07
2018-08-10T03:47:42.068Z,98.18
2018-08-10T03:50:13.188Z,98.34
2018-08-10T03:52:42.987Z,98.28
2018-08-10T03:55:11.919Z,98.34
2018-08-10T03:57:41.079Z,98.67
2018-08-10T04:00:12.520Z,98.25
2018-08-10T04:02:41.692Z,98.45
2018-08-10T04:05:12.266Z,98.40
2018-08-10T04:07:41.011Z,98.58
2018-08-10T04:10:10.752Z,98.14
2018-08-10T04:12:40.017Z,98.29
2018-08-10T04:15:11.181Z,99.10
2018-08-10T04:17:40.061Z,99.20
2018-08-10T04:20:10.003Z,98.67
2018-08-10T04:22:40.123Z,99.20
2018-08-10T04:25:10.268Z,98.33
2018-08-10T04:27:39.064Z,97.83
2018-08-10T04:30:09.536Z,97.71
2018-08-10T04:32:39.159Z,97.14
2018-08-10T04:35:08.243Z,97.00
2018-08-10T04:37:36.987Z,96.93
2018-08-10T04:40:07.120Z,96.78
2018-08-10T04:42:36.572Z,96.99
2018-08-10T04:45:05.861Z,97.66
2018-08-10T04:47:34.993Z,97.61
2018-08-10T04:50:03.772Z,97.99
2018-08-10T04:52:32.541Z,97.82
2018-08-10T04:55:01.621Z,97.90
2018-08-10T04:57:30.674Z,97.99
2018-08-10T04:59:59.760Z,97.68
2018-08-10T05:02:29.115Z,98.69
2018-08-10T05:04:58.268Z,98.71
2018-08-10T05:07:27.001Z,98.77
2018-08-10T05:09:56.167Z,99.42
2018-08-10T05:12:25.242Z,99.16
2018-08-10T05:14:54.228Z,99.58
2018-08-10T05:17:23.099Z,99.70
2018-08-10T05:19:52.940Z,99.80
2018-08-10T05:22:21.862Z,99.55
2018-08-10T05:24:51.170Z,99.62
2018-08-10T05:27:19.942Z,99.00
2018-08-10T05:29:48.818Z,99.87
2018-08-10T05:32:20.751Z,99.35
2018-08-10T05:34:50.211Z,99.14
2018-08-10T05:37:19.072Z,99.20
2018-08-10T05:39:47.863Z,98.47
2018-08-10T05:42:16.778Z,98.59
2018-08-10T05:44:46.059Z,98.00
2018-08-10T05:47:15.128Z,96.78
2018-08-10T05:49:44.351Z,97.19
2018-08-10T05:52:13.523Z,96.84
2018-08-10T05:54:42.553Z,96.55
2018-08-10T05:57:11.559Z,96.56
2018-08-10T05:59:40.393Z,96.08
2018-08-10T06:02:09.149Z,95.32
2018-08-10T06:04:37.918Z,95.14
2018-08-10T06:07:06.974Z,95.66
2018-08-10T06:09:35.742Z,94.25
2018-08-10T06:12:05.187Z,93.73
2018-08-10T06:14:34.270Z,93.15
2018-08-10T06:17:03.033Z,93.66
2018-08-10T06:19:32.397Z,92.99
2018-08-10T06:22:01.154Z,91.84
2018-08-10T06:24:30.477Z,91.95
2018-08-10T06:27:02.020Z,91.89
2018-08-10T06:29:31.021Z,91.01
2018-08-10T06:32:00.320Z,90.18
2018-08-10T06:34:29.105Z,89.95
2018-08-10T06:36:57.903Z,88.96
2018-08-10T06:39:26.664Z,87.89
2018-08-10T06:41:55.718Z,88.05
2018-08-10T06:44:24.479Z,87.85
2018-08-10T06:46:53.469Z,86.23
2018-08-10T06:52:23.823Z,84.50
2018-08-10T06:54:53.050Z,83.46
2018-08-10T06:57:22.125Z,84.33
2018-08-10T06:59:51.162Z,83.72
2018-08-10T07:02:20.160Z,83.55
2018-08-10T07:04:49.401Z,83.55
2018-08-10T07:07:18.211Z,83.39
2018-08-10T07:09:46.991Z,82.48
2018-08-10T07:12:16.272Z,81.70
2018-08-10T07:14:45.172Z,82.22
2018-08-10T07:17:14.368Z,82.09
2018-08-10T07:19:43.428Z,82.05
2018-08-10T07:22:12.444Z,82.44
2018-08-10T07:24:42.441Z,80.40
2018-08-10T07:27:11.514Z,80.01
2018-08-10T07:29:40.551Z,79.73
2018-08-10T07:32:09.409Z,77.92
2018-08-10T07:34:38.231Z,77.33
2018-08-10T07:37:07.045Z,77.82
2018-08-10T07:39:35.898Z,78.65
2018-08-10T07:42:04.721Z,77.47
2018-08-10T07:44:33.526Z,77.10
2018-08-10T07:47:02.542Z,76.00
2018-08-10T07:49:31.567Z,72.03
2018-08-10T07:52:00.709Z,72.54
2018-08-10T07:54:29.793Z,71.92
2018-08-10T07:56:58.546Z,70.79
2018-08-10T07:59:27.295Z,70.03
2018-08-10T08:01:56.059Z,69.53
2018-08-10T08:04:25.612Z,69.79
2018-08-10T08:06:54.363Z,66.90
2018-08-10T08:09:23.093Z,68.65
2018-08-10T08:11:52.196Z,65.83
2018-08-10T08:14:21.825Z,66.49
2018-08-10T08:16:50.773Z,66.30
2018-08-10T08:19:19.517Z,65.69
2018-08-10T08:22:07.498Z,64.28
2018-08-10T08:24:36.872Z,64.42
2018-08-10T08:27:05.731Z,63.12
2018-08-10T08:29:34.765Z,63.35
2018-08-10T08:34:31.773Z,62.48
2018-08-10T08:37:01.495Z,62.94
2018-08-10T08:40:44.643Z,62.81
2018-08-10T08:43:13.698Z,61.64
2018-08-10T08:45:47.182Z,60.95
2018-08-10T08:48:16.012Z,62.02
2018-08-10T08:50:46.213Z,63.31
2018-08-10T08:53:14.991Z,63.09
2018-08-10T08:55:47.284Z,62.66
2018-08-10T08:58:16.123Z,61.58
2018-08-10T09:00:45.180Z,59.69
2018-08-10T09:03:25.531Z,60.33
2018-08-10T09:05:54.348Z,61.27
2018-08-10T09:08:23.137Z,59.71
2018-08-10T09:10:52.725Z,60.91
2018-08-10T09:13:21.519Z,61.05
2018-08-10T09:15:50.257Z,61.15
2018-08-10T09:18:18.989Z,61.11
2018-08-10T09:20:48.083Z,63.23
2018-08-10T09:23:16.919Z,60.33
2018-08-10T09:25:45.739Z,60.53
2018-08-10T09:28:14.519Z,59.89
2018-08-10T09:30:43.278Z,57.93
2018-08-10T09:33:12.274Z,57.34
2018-08-10T09:35:40.986Z,58.44
2018-08-10T09:38:09.971Z,56.11
2018-08-10T09:40:39.242Z,55.90
2018-08-10T09:43:08.216Z,56.92
2018-08-10T09:45:36.925Z,54.24
2018-08-10T09:48:05.737Z,52.59
2018-08-10T09:50:35.025Z,52.21
2018-08-10T09:53:05.095Z,51.45
2018-08-10T09:55:38.088Z,51.90
2018-08-10T09:58:13.036Z,51.12
2018-08-10T10:01:22.446Z,51.62
2018-08-10T10:03:51.218Z,52.92
2018-08-10T10:06:19.977Z,50.44
2018-08-10T10:08:48.695Z,50.80
2018-08-10T10:11:17.808Z,48.92
2018-08-10T10:13:47.183Z,50.64
2018-08-10T10:16:16.105Z,47.63
2018-08-10T10:18:45.315Z,48.09
2018-08-10T10:21:14.109Z,48.09
2018-08-10T10:23:43.491Z,46.09
2018-08-10T10:26:12.210Z,47.06
2018-08-10T10:28:40.907Z,47.08
2018-08-10T10:31:09.692Z,44.74
2018-08-10T10:33:38.710Z,43.23
2018-08-10T10:36:07.767Z,43.85
2018-08-10T10:38:39.767Z,41.18
2018-08-10T10:41:08.606Z,41.68
2018-08-10T10:43:37.615Z,43.74
2018-08-10T10:46:06.424Z,42.48
2018-08-10T10:48:35.521Z,43.58
2018-08-10T10:51:04.566Z,42.61
2018-08-10T10:53:33.307Z,42.35
2018-08-10T10:56:02.048Z,43.74
2018-08-10T10:58:31.333Z,42.67
2018-08-10T11:01:00.375Z,43.42
2018-08-10T11:03:29.443Z,43.96
2018-08-10T11:05:58.201Z,42.38
2018-08-10T11:08:27.013Z,41.11
2018-08-10T11:10:55.788Z,40.50
2018-08-10T11:13:24.788Z,40.13
2018-08-10T11:15:54.739Z,39.80
2018-08-10T11:18:24.041Z,40.45
2018-08-10T11:20:52.773Z,39.52
2018-08-10T11:23:21.836Z,37.50
2018-08-10T11:25:50.797Z,38.40
2018-08-10T11:28:19.803Z,37.09
2018-08-10T11:30:49.533Z,38.79
2018-08-10T11:33:19.209Z,39.99
2018-08-10T11:35:48.026Z,41.58
2018-08-10T11:38:16.981Z,41.86
2018-08-10T11:40:45.993Z,43.14
2018-08-10T11:43:14.902Z,42.69
2018-08-10T11:45:43.762Z,43.07
2018-08-10T11:48:12.772Z,43.16
2018-08-10T11:50:41.781Z,43.40
2018-08-10T11:53:10.588Z,41.54
2018-08-10T11:55:39.354Z,41.54
2018-08-10T11:58:08.155Z,41.90
2018-08-10T12:00:36.924Z,44.11
2018-08-10T12:03:05.903Z,46.45
2018-08-10T12:05:34.701Z,48.46
2018-08-10T12:08:03.108Z,49.11
2018-08-10T12:10:31.852Z,50.50
2018-08-10T12:13:01.118Z,51.29
2018-08-10T12:15:29.889Z,51.63
2018-08-10T12:17:58.641Z,52.12
2018-08-10T12:20:27.347Z,51.74
2018-08-10T12:22:56.086Z,52.34
2018-08-10T12:25:25.112Z,51.50
2018-08-10T12:27:53.867Z,52.36
2018-08-10T12:30:22.741Z,51.02
2018-08-10T12:32:52.090Z,51.20
2018-08-10T12:35:20.859Z,51.07
2018-08-10T12:37:49.597Z,51.30
2018-08-10T12:40:19.064Z,49.17
2018-08-10T12:42:47.815Z,48.06
2018-08-10T12:45:16.545Z,48.88
2018-08-10T12:47:45.689Z,49.07
2018-08-10T12:50:14.454Z,49.08
2018-08-10T12:52:43.381Z,47.71
2018-08-10T12:55:12.415Z,47.23
2018-08-10T12:57:41.469Z,47.99
2018-08-10T13:00:12.002Z,48.88
2018-08-10T13:02:41.274Z,48.03
2018-08-10T13:05:10.959Z,47.35
2018-08-10T13:07:39.718Z,48.08
2018-08-10T13:10:13.679Z,47.95
2018-08-10T13:12:42.730Z,48.25
2018-08-10T13:15:12.948Z,48.74
2018-08-10T13:17:42.175Z,46.06
2018-08-10T13:20:13.075Z,42.69
2018-08-10T13:22:41.946Z,40.46
2018-08-10T13:25:11.325Z,40.18
2018-08-10T13:27:40.175Z,38.63
2018-08-10T13:30:10.956Z,38.59
2018-08-10T13:32:40.332Z,36.74
2018-08-10T13:35:09.477Z,38.55
2018-08-10T13:37:38.729Z,35.64
2018-08-10T13:40:07.524Z,34.67
2018-08-10T13:42:36.340Z,36.94
2018-08-10T13:45:07.293Z,36.87
2018-08-10T13:47:36.359Z,34.95
2018-08-10T13:50:07.129Z,36.00
2018-08-10T13:52:35.905Z,36.54
2018-08-10T13:55:04.893Z,36.57
2018-08-10T13:57:34.275Z,37.70
2018-08-10T14:00:03.238Z,37.48
2018-08-10T14:02:32.010Z,38.04
2018-08-10T14:05:01.167Z,38.64
2018-08-10T14:07:29.875Z,40.20
2018-08-10T14:09:58.954Z,40.54
2018-08-10T14:12:27.742Z,43.37
2018-08-10T14:14:56.503Z,49.74
2018-08-10T14:17:25.817Z,51.53
2018-08-10T14:19:54.909Z,56.37
2018-08-10T14:22:23.977Z,60.58
2018-08-10T14:24:53.465Z,61.33
2018-08-10T14:27:22.441Z,61.31
2018-08-10T14:29:51.213Z,62.07
2018-08-10T14:32:20.048Z,62.35
2018-08-10T14:34:48.810Z,62.20
2018-08-10T14:37:17.938Z,62.45
2018-08-10T14:39:46.803Z,62.05
2018-08-10T14:42:15.762Z,61.45
2018-08-10T14:44:44.519Z,60.87
2018-08-10T14:47:13.700Z,59.47
2018-08-10T14:49:42.921Z,59.74
2018-08-10T14:52:11.639Z,59.31
2018-08-10T14:54:40.358Z,59.00
2018-08-10T14:57:09.350Z,57.29
2018-08-10T14:59:38.721Z,57.80
2018-08-10T15:02:07.712Z,57.64
2018-08-10T15:04:37.172Z,57.57
2018-08-10T15:07:06.220Z,57.45
2018-08-10T15:09:35.266Z,57.40
2018-08-10T15:12:04.492Z,57.89
2018-08-10T15:14:33.360Z,58.15
2018-08-10T15:17:02.490Z,57.16
2018-08-10T15:19:31.516Z,56.30
2018-08-10T15:22:00.265Z,56.91
2018-08-10T15:24:28.958Z,57.18
2018-08-10T15:26:57.779Z,61.13
2018-08-10T15:29:26.999Z,62.76
2018-08-10T15:31:56.839Z,65.17
2018-08-10T15:34:25.582Z,67.31
2018-08-10T15:36:54.403Z,68.02
2018-08-10T15:39:24.689Z,69.55
2018-08-10T15:41:53.749Z,68.78
2018-08-10T15:44:22.823Z,67.49
2018-08-10T15:46:51.811Z,66.68
2018-08-10T15:49:20.619Z,65.79
2018-08-10T15:51:56.065Z,66.11
2018-08-10T15:54:25.129Z,65.33
2018-08-10T15:56:53.902Z,61.50
2018-08-10T15:59:22.650Z,62.51
2018-08-10T16:01:51.468Z,61.66
2018-08-10T16:04:20.698Z,58.77
2018-08-10T16:06:49.854Z,58.79
2018-08-10T16:09:18.659Z,56.91
2018-08-10T16:11:47.371Z,57.10
2018-08-10T16:14:16.698Z,57.42
2018-08-10T16:16:45.840Z,57.78
2018-08-10T16:19:14.825Z,55.89
2018-08-10T16:21:44.169Z,54.44
2018-08-10T16:24:12.972Z,55.05
2018-08-10T16:26:41.709Z,54.00
2018-08-10T16:29:10.504Z,52.74
2018-08-10T16:31:39.448Z,54.60
2018-08-10T16:34:08.792Z,52.29
2018-08-10T16:36:37.551Z,52.81
2018-08-10T16:39:09.690Z,53.32
2018-08-10T16:41:38.504Z,55.08
2018-08-10T16:44:07.336Z,54.42
2018-08-10T16:46:36.387Z,52.62
2018-08-10T16:49:05.263Z,47.50
2018-08-10T16:51:34.282Z,47.66
2018-08-10T16:54:03.784Z,48.82
2018-08-10T16:56:32.734Z,48.22
2018-08-10T16:59:02.107Z,48.71
2018-08-10T17:01:31.562Z,47.96
2018-08-10T17:04:00.342Z,48.85
2018-08-10T17:06:29.096Z,49.58
2018-08-10T17:08:58.558Z,49.76
2018-08-10T17:11:27.674Z,50.13
2018-08-10T17:13:56.612Z,50.34
2018-08-10T17:16:25.370Z,51.72
2018-08-10T17:18:54.489Z,52.32
2018-08-10T17:21:23.489Z,51.50
2018-08-10T17:23:52.632Z,51.37
2018-08-10T17:26:21.585Z,51.24
2018-08-10T17:28:50.667Z,51.44
2018-08-10T17:31:19.690Z,51.90
2018-08-10T17:33:48.405Z,52.22
2018-08-10T17:36:17.158Z,52.81
2018-08-10T17:38:46.679Z,52.68
2018-08-10T17:41:15.398Z,52.85
2018-08-10T17:43:44.139Z,52.89
2018-08-10T17:46:13.139Z,52.95
2018-08-10T17:48:41.990Z,52.22
2018-08-10T17:51:10.734Z,52.83
2018-08-10T17:53:39.468Z,52.66
2018-08-10T17:56:08.263Z,53.07
2018-08-10T17:58:37.431Z,53.14
2018-08-10T18:01:06.506Z,52.66
2018-08-10T18:03:35.241Z,52.60
2018-08-10T18:06:04.065Z,52.24
2018-08-10T18:08:33.051Z,52.42
2018-08-10T18:11:01.806Z,52.09
2018-08-10T18:13:30.579Z,52.80
2018-08-10T18:15:59.602Z,53.13
2018-08-10T18:18:28.339Z,53.16
2018-08-10T18:20:57.306Z,53.46
2018-08-10T18:23:26.291Z,54.07
2018-08-10T18:25:55.030Z,54.30
2018-08-10T18:28:23.846Z,54.64
2018-08-10T18:30:52.687Z,54.42
2018-08-10T18:33:21.943Z,53.92
2018-08-10T18:35:51.045Z,54.48
2018-08-10T18:38:20.749Z,54.33
2018-08-10T18:40:49.515Z,54.77
2018-08-10T18:43:18.958Z,54.64
2018-08-10T18:45:48.019Z,55.42
2018-08-10T18:48:17.037Z,55.96
2018-08-10T18:50:46.312Z,55.94
2018-08-10T18:53:14.978Z,56.46
2018-08-10T18:55:44.323Z,56.25
2018-08-10T18:58:13.087Z,57.17
2018-08-10T19:00:41.822Z,56.46
2018-08-10T19:03:10.894Z,56.52
2018-08-10T19:05:39.740Z,55.98
2018-08-10T19:08:08.533Z,56.62
2018-08-10T19:10:37.622Z,55.91
2018-08-10T19:15:34.379Z,57.42
2018-08-10T19:18:03.156Z,57.20
2018-08-10T19:20:31.935Z,57.04
2018-08-10T19:23:01.003Z,56.97
2018-08-10T19:25:29.810Z,56.95
2018-08-10T19:28:05.114Z,56.11
2018-08-10T19:30:34.112Z,56.20
2018-08-10T19:33:02.968Z,54.60
2018-08-10T19:35:31.791Z,53.75
2018-08-10T19:38:02.168Z,54.33
2018-08-10T19:40:31.316Z,53.44
2018-08-10T19:43:00.019Z,53.40
2018-08-10T19:45:28.812Z,53.82
2018-08-10T19:47:58.754Z,53.62
2018-08-10T19:50:27.514Z,53.84
2018-08-10T19:52:56.284Z,54.22
2018-08-10T19:55:25.092Z,54.55
2018-08-10T19:57:53.794Z,55.51
2018-08-10T20:00:22.609Z,56.18
2018-08-10T20:02:52.388Z,55.84
2018-08-10T20:05:21.205Z,56.07
2018-08-10T20:07:49.988Z,56.40
2018-08-10T20:10:19.143Z,56.40
2018-08-10T20:12:47.917Z,57.10
2018-08-10T20:15:17.967Z,56.20
2018-08-10T20:17:47.435Z,56.91
2018-08-10T20:20:18.249Z,56.70
2018-08-10T20:22:47.346Z,57.10
2018-08-10T20:25:16.302Z,57.25
2018-08-10T20:27:45.157Z,57.12
2018-08-10T20:30:16.725Z,57.52
2018-08-10T20:32:46.541Z,57.33
2018-08-10T20:35:17.094Z,57.14
2018-08-10T20:37:46.035Z,57.63
2018-08-10T20:40:19.343Z,57.95
2018-08-10T20:42:48.698Z,57.56
2018-08-10T20:45:19.116Z,58.01
2018-08-10T20:47:48.451Z,58.00
2018-08-10T20:50:25.549Z,59.45
2018-08-10T20:52:54.862Z,63.21
2018-08-10T20:55:24.094Z,64.80
2018-08-10T20:57:53.111Z,67.61
2018-08-10T21:00:21.893Z,68.12
2018-08-10T21:02:51.039Z,70.63
2018-08-10T21:05:20.334Z,70.54
2018-08-10T21:07:49.313Z,71.87
2018-08-10T21:10:19.234Z,71.54
2018-08-10T21:12:48.761Z,71.98
2018-08-10T21:15:17.678Z,72.88
2018-08-10T21:17:47.301Z,73.12
2018-08-10T21:20:18.358Z,73.84
2018-08-10T21:22:47.482Z,73.26
2018-08-10T21:25:17.065Z,74.12
2018-08-10T21:27:47.532Z,73.79
2018-08-10T21:30:19.399Z,73.45
2018-08-10T21:32:48.952Z,73.35
2018-08-10T21:35:19.053Z,73.47
2018-08-10T21:37:48.899Z,74.27
2018-08-10T21:40:17.918Z,73.91
2018-08-10T21:42:46.967Z,74.85
2018-08-10T21:45:16.957Z,74.90
2018-08-10T21:47:45.875Z,75.21
2018-08-10T21:50:15.557Z,74.67
2018-08-10T21:52:45.195Z,75.16
2018-08-10T21:55:13.991Z,74.89
2018-08-10T21:57:42.917Z,75.15
2018-08-10T22:00:33.838Z,75.30
2018-08-10T22:03:02.748Z,74.98
2018-08-10T22:05:31.585Z,74.85
2018-08-10T22:08:00.880Z,75.49
2018-08-10T22:10:30.031Z,74.87
2018-08-10T22:12:59.415Z,75.29
2018-08-10T22:15:33.363Z,75.69
2018-08-10T22:18:07.574Z,75.75
2018-08-10T22:20:36.909Z,76.75
2018-08-10T22:23:05.863Z,76.82
2018-08-10T22:25:34.641Z,77.27
2018-08-10T22:28:03.373Z,77.50
2018-08-10T22:30:32.217Z,77.61
2018-08-10T22:33:01.002Z,78.59
2018-08-10T22:35:30.092Z,79.13
2018-08-10T22:37:58.833Z,79.86
2018-08-10T22:40:27.592Z,80.73
2018-08-10T22:42:56.327Z,81.97
2018-08-10T22:45:25.560Z,83.13
2018-08-10T22:47:54.330Z,87.58
2018-08-10T22:50:23.194Z,86.84
2018-08-10T22:52:51.946Z,86.22
2018-08-10T22:55:20.808Z,88.60
2018-08-10T22:57:49.589Z,89.00
2018-08-10T23:00:18.637Z,92.01
2018-08-10T23:02:48.960Z,91.99
2018-08-10T23:05:18.016Z,91.37
2018-08-10T23:07:47.638Z,89.88
2018-08-10T23:10:16.675Z,90.30
2018-08-10T23:12:45.799Z,91.15
2018-08-10T23:15:14.586Z,90.80
2018-08-10T23:17:43.686Z,90.53
2018-08-10T23:20:14.549Z,90.89
2018-08-10T23:22:43.342Z,90.78
2018-08-10T23:25:13.844Z,90.68
2018-08-10T23:27:44.055Z,92.04
2018-08-10T23:30:16.047Z,91.19
2018-08-10T23:32:45.290Z,90.86
2018-08-10T23:35:14.455Z,90.76
2018-08-10T23:37:43.509Z,91.28
2018-08-10T23:40:26.931Z,90.97
2018-08-10T23:42:57.972Z,90.74
2018-08-10T23:45:30.996Z,91.53
2018-08-10T23:48:03.507Z,90.69
2018-08-10T23:50:34.728Z,91.10
2018-08-10T23:53:04.290Z,90.98
2018-08-10T23:55:33.924Z,90.58
2018-08-10T23:58:03.051Z,90.35
